sensor_id;sensor_type;location;lat;lon;timestamp;P1;durP1;ratioP1;P2;durP2;ratioP2
73954;SDS011;62306;52.516;13.290;2022-12-07T01:35:44;12.48;;;6.80;;
73954;SDS011;62306;52.516;13.290;2022-12-07T01:38:10;12.00;;;6.90;;
73954;SDS011;62306;52.516;13.290;2022-12-07T01:40:37;13.15;;;6.82;;
73954;SDS011;62306;52.516;13.290;2022-12-07T01:43:04;11.73;;;6.50;;
73954;SDS011;62306;52.516;13.290;2022-12-07T01:45:40;9.90;;;6.32;;
73954;SDS011;62306;52.516;13.290;2022-12-07T02:11:19;10.25;;;6.47;;
73954;SDS011;62306;52.516;13.290;2022-12-07T02:29:11;12.57;;;6.45;;
73954;SDS011;62306;52.516;13.290;2022-12-07T02:31:45;10.77;;;6.28;;
73954;SDS011;62306;52.516;13.290;2022-12-07T02:34:19;13.30;;;7.03;;
73954;SDS011;62306;52.516;13.290;2022-12-07T02:36:55;12.18;;;7.43;;
73954;SDS011;62306;52.516;13.290;2022-12-07T02:39:28;12.43;;;7.45;;
73954;SDS011;62306;52.516;13.290;2022-12-07T03:31:17;19.00;;;9.57;;
73954;SDS011;62306;52.516;13.290;2022-12-07T03:33:49;20.65;;;10.98;;
73954;SDS011;62306;52.516;13.290;2022-12-07T03:36:21;23.42;;;10.98;;
73954;SDS011;62306;52.516;13.290;2022-12-07T03:38:53;20.90;;;10.25;;
73954;SDS011;62306;52.516;13.290;2022-12-07T03:41:25;17.73;;;9.55;;
73954;SDS011;62306;52.516;13.290;2022-12-07T03:43:55;18.85;;;9.93;;
73954;SDS011;62306;52.516;13.290;2022-12-07T03:46:27;18.20;;;9.50;;
73954;SDS011;62306;52.516;13.290;2022-12-07T03:49:03;21.33;;;10.65;;
73954;SDS011;62306;52.516;13.290;2022-12-07T03:51:36;20.45;;;10.35;;
73954;SDS011;62306;52.516;13.290;2022-12-07T03:54:10;21.08;;;11.65;;
73954;SDS011;62306;52.516;13.290;2022-12-07T03:56:41;21.95;;;10.82;;
73954;SDS011;62306;52.516;13.290;2022-12-07T03:59:10;23.05;;;11.35;;
73954;SDS011;62306;52.516;13.290;2022-12-07T04:01:42;20.40;;;10.43;;
73954;SDS011;62306;52.516;13.290;2022-12-07T04:04:09;26.05;;;11.60;;
73954;SDS011;62306;52.516;13.290;2022-12-07T04:06:36;25.85;;;11.80;;
73954;SDS011;62306;52.516;13.290;2022-12-07T04:09:03;21.85;;;11.07;;
73954;SDS011;62306;52.516;13.290;2022-12-07T04:11:29;23.00;;;11.45;;
73954;SDS011;62306;52.516;13.290;2022-12-07T04:13:56;22.98;;;12.45;;
73954;SDS011;62306;52.516;13.290;2022-12-07T04:16:42;25.35;;;12.63;;
73954;SDS011;62306;52.516;13.290;2022-12-07T04:19:09;24.08;;;12.15;;
73954;SDS011;62306;52.516;13.290;2022-12-07T04:21:36;28.10;;;13.90;;
73954;SDS011;62306;52.516;13.290;2022-12-07T04:24:03;24.20;;;11.40;;
73954;SDS011;62306;52.516;13.290;2022-12-07T04:26:30;30.10;;;13.77;;
73954;SDS011;62306;52.516;13.290;2022-12-07T04:28:57;27.20;;;14.50;;
73954;SDS011;62306;52.516;13.290;2022-12-07T04:31:24;26.48;;;13.30;;
73954;SDS011;62306;52.516;13.290;2022-12-07T04:33:53;28.90;;;14.20;;
73954;SDS011;62306;52.516;13.290;2022-12-07T04:36:20;26.02;;;14.05;;
73954;SDS011;62306;52.516;13.290;2022-12-07T04:38:46;27.42;;;14.07;;
73954;SDS011;62306;52.516;13.290;2022-12-07T04:41:14;28.77;;;14.48;;
73954;SDS011;62306;52.516;13.290;2022-12-07T04:43:40;28.52;;;14.07;;
73954;SDS011;62306;52.516;13.290;2022-12-07T04:46:07;30.55;;;15.63;;
73954;SDS011;62306;52.516;13.290;2022-12-07T04:48:38;32.53;;;16.75;;
73954;SDS011;62306;52.516;13.290;2022-12-07T04:51:10;31.88;;;15.75;;
73954;SDS011;62306;52.516;13.290;2022-12-07T04:53:37;36.80;;;16.55;;
73954;SDS011;62306;52.516;13.290;2022-12-07T04:56:04;39.88;;;16.58;;
73954;SDS011;62306;52.516;13.290;2022-12-07T04:58:31;34.90;;;16.45;;
73954;SDS011;62306;52.516;13.290;2022-12-07T05:00:58;41.92;;;18.98;;
73954;SDS011;62306;52.516;13.290;2022-12-07T05:03:26;36.33;;;16.48;;
73954;SDS011;62306;52.516;13.290;2022-12-07T05:05:53;39.90;;;18.27;;
73954;SDS011;62306;52.516;13.290;2022-12-07T05:08:21;35.75;;;18.33;;
73954;SDS011;62306;52.516;13.290;2022-12-07T05:10:48;36.63;;;17.58;;
73954;SDS011;62306;52.516;13.290;2022-12-07T05:13:15;34.28;;;17.67;;
73954;SDS011;62306;52.516;13.290;2022-12-07T05:15:42;38.67;;;17.77;;
73954;SDS011;62306;52.516;13.290;2022-12-07T05:18:09;36.60;;;18.25;;
73954;SDS011;62306;52.516;13.290;2022-12-07T05:20:37;41.85;;;18.08;;
73954;SDS011;62306;52.516;13.290;2022-12-07T05:23:04;41.72;;;19.63;;
73954;SDS011;62306;52.516;13.290;2022-12-07T05:25:32;38.47;;;18.52;;
73954;SDS011;62306;52.516;13.290;2022-12-07T05:28:00;37.85;;;18.85;;
73954;SDS011;62306;52.516;13.290;2022-12-07T05:30:26;44.72;;;18.83;;
73954;SDS011;62306;52.516;13.290;2022-12-07T05:32:54;38.50;;;18.80;;
73954;SDS011;62306;52.516;13.290;2022-12-07T05:35:21;47.30;;;19.67;;
73954;SDS011;62306;52.516;13.290;2022-12-07T05:37:48;38.75;;;18.95;;
73954;SDS011;62306;52.516;13.290;2022-12-07T05:40:15;39.45;;;19.95;;
73954;SDS011;62306;52.516;13.290;2022-12-07T05:42:45;36.55;;;18.10;;
73954;SDS011;62306;52.516;13.290;2022-12-07T05:45:12;55.33;;;19.63;;
73954;SDS011;62306;52.516;13.290;2022-12-07T05:47:39;41.70;;;18.90;;
73954;SDS011;62306;52.516;13.290;2022-12-07T05:50:06;42.20;;;19.67;;
73954;SDS011;62306;52.516;13.290;2022-12-07T05:52:33;43.72;;;19.50;;
73954;SDS011;62306;52.516;13.290;2022-12-07T05:55:00;41.95;;;19.90;;
73954;SDS011;62306;52.516;13.290;2022-12-07T05:57:27;39.25;;;19.58;;
73954;SDS011;62306;52.516;13.290;2022-12-07T05:59:55;41.70;;;19.00;;
73954;SDS011;62306;52.516;13.290;2022-12-07T06:02:21;43.25;;;19.17;;
73954;SDS011;62306;52.516;13.290;2022-12-07T06:04:48;43.13;;;20.38;;
73954;SDS011;62306;52.516;13.290;2022-12-07T06:07:16;41.20;;;19.48;;
73954;SDS011;62306;52.516;13.290;2022-12-07T06:09:43;39.33;;;20.10;;
73954;SDS011;62306;52.516;13.290;2022-12-07T06:12:10;40.70;;;19.40;;
73954;SDS011;62306;52.516;13.290;2022-12-07T06:14:56;46.22;;;18.98;;
73954;SDS011;62306;52.516;13.290;2022-12-07T06:17:23;48.92;;;20.30;;
73954;SDS011;62306;52.516;13.290;2022-12-07T06:19:50;41.55;;;19.67;;
73954;SDS011;62306;52.516;13.290;2022-12-07T06:22:17;41.70;;;18.88;;
73954;SDS011;62306;52.516;13.290;2022-12-07T06:24:44;46.17;;;17.65;;
73954;SDS011;62306;52.516;13.290;2022-12-07T06:27:12;42.90;;;18.63;;
73954;SDS011;62306;52.516;13.290;2022-12-07T06:29:39;38.75;;;18.25;;
73954;SDS011;62306;52.516;13.290;2022-12-07T06:32:07;39.35;;;18.45;;
73954;SDS011;62306;52.516;13.290;2022-12-07T06:34:34;38.40;;;17.80;;
73954;SDS011;62306;52.516;13.290;2022-12-07T06:37:01;41.78;;;19.05;;
73954;SDS011;62306;52.516;13.290;2022-12-07T06:39:28;43.65;;;19.77;;
73954;SDS011;62306;52.516;13.290;2022-12-07T06:41:55;41.42;;;19.85;;
73954;SDS011;62306;52.516;13.290;2022-12-07T06:44:23;50.55;;;20.67;;
73954;SDS011;62306;52.516;13.290;2022-12-07T06:46:50;43.92;;;19.05;;
73954;SDS011;62306;52.516;13.290;2022-12-07T06:49:19;45.08;;;19.70;;
73954;SDS011;62306;52.516;13.290;2022-12-07T06:51:46;44.42;;;20.58;;
73954;SDS011;62306;52.516;13.290;2022-12-07T06:54:13;44.72;;;20.35;;
73954;SDS011;62306;52.516;13.290;2022-12-07T06:56:41;43.40;;;20.42;;
73954;SDS011;62306;52.516;13.290;2022-12-07T06:59:09;40.53;;;20.38;;
73954;SDS011;62306;52.516;13.290;2022-12-07T07:01:36;43.03;;;20.42;;
73954;SDS011;62306;52.516;13.290;2022-12-07T07:04:03;48.55;;;20.80;;
73954;SDS011;62306;52.516;13.290;2022-12-07T07:06:31;48.42;;;21.65;;
73954;SDS011;62306;52.516;13.290;2022-12-07T07:08:58;44.30;;;20.63;;
73954;SDS011;62306;52.516;13.290;2022-12-07T07:11:25;47.53;;;21.30;;
73954;SDS011;62306;52.516;13.290;2022-12-07T07:13:52;47.22;;;19.92;;
73954;SDS011;62306;52.516;13.290;2022-12-07T07:16:22;42.10;;;19.92;;
73954;SDS011;62306;52.516;13.290;2022-12-07T07:18:49;50.08;;;20.77;;
73954;SDS011;62306;52.516;13.290;2022-12-07T07:21:16;45.38;;;20.95;;
73954;SDS011;62306;52.516;13.290;2022-12-07T07:23:44;49.10;;;20.70;;
73954;SDS011;62306;52.516;13.290;2022-12-07T07:26:11;45.17;;;18.88;;
73954;SDS011;62306;52.516;13.290;2022-12-07T07:28:38;45.10;;;19.55;;
73954;SDS011;62306;52.516;13.290;2022-12-07T07:31:05;38.85;;;19.17;;
73954;SDS011;62306;52.516;13.290;2022-12-07T07:33:32;40.53;;;18.05;;
73954;SDS011;62306;52.516;13.290;2022-12-07T07:35:59;36.65;;;17.35;;
73954;SDS011;62306;52.516;13.290;2022-12-07T07:38:26;35.97;;;17.73;;
73954;SDS011;62306;52.516;13.290;2022-12-07T07:40:54;36.45;;;16.13;;
73954;SDS011;62306;52.516;13.290;2022-12-07T07:43:21;33.75;;;15.57;;
73954;SDS011;62306;52.516;13.290;2022-12-07T07:45:48;35.40;;;15.18;;
73954;SDS011;62306;52.516;13.290;2022-12-07T07:48:15;31.80;;;15.65;;
73954;SDS011;62306;52.516;13.290;2022-12-07T07:50:42;28.92;;;14.57;;
73954;SDS011;62306;52.516;13.290;2022-12-07T07:53:09;37.40;;;13.50;;
73954;SDS011;62306;52.516;13.290;2022-12-07T07:55:36;25.48;;;12.98;;
73954;SDS011;62306;52.516;13.290;2022-12-07T07:58:04;22.23;;;11.60;;
73954;SDS011;62306;52.516;13.290;2022-12-07T08:00:31;24.65;;;11.40;;
73954;SDS011;62306;52.516;13.290;2022-12-07T08:02:58;21.65;;;10.70;;
73954;SDS011;62306;52.516;13.290;2022-12-07T08:05:25;24.88;;;10.38;;
73954;SDS011;62306;52.516;13.290;2022-12-07T08:07:52;22.35;;;10.50;;
73954;SDS011;62306;52.516;13.290;2022-12-07T08:10:19;24.17;;;10.52;;
73954;SDS011;62306;52.516;13.290;2022-12-07T08:12:46;24.15;;;10.45;;
73954;SDS011;62306;52.516;13.290;2022-12-07T08:15:46;16.98;;;8.88;;
73954;SDS011;62306;52.516;13.290;2022-12-07T08:18:14;18.90;;;9.18;;
73954;SDS011;62306;52.516;13.290;2022-12-07T08:20:41;18.65;;;8.57;;
73954;SDS011;62306;52.516;13.290;2022-12-07T08:23:09;15.15;;;7.45;;
73954;SDS011;62306;52.516;13.290;2022-12-07T08:25:36;14.25;;;6.43;;
73954;SDS011;62306;52.516;13.290;2022-12-07T08:28:04;12.55;;;6.93;;
73954;SDS011;62306;52.516;13.290;2022-12-07T08:30:31;12.35;;;6.30;;
73954;SDS011;62306;52.516;13.290;2022-12-07T08:33:00;12.35;;;6.47;;
73954;SDS011;62306;52.516;13.290;2022-12-07T08:35:27;10.63;;;5.90;;
73954;SDS011;62306;52.516;13.290;2022-12-07T08:37:54;8.13;;;5.30;;
73954;SDS011;62306;52.516;13.290;2022-12-07T08:40:22;6.85;;;4.60;;
73954;SDS011;62306;52.516;13.290;2022-12-07T08:42:50;7.90;;;4.55;;
73954;SDS011;62306;52.516;13.290;2022-12-07T08:45:17;8.13;;;3.58;;
73954;SDS011;62306;52.516;13.290;2022-12-07T08:47:46;7.05;;;3.92;;
73954;SDS011;62306;52.516;13.290;2022-12-07T08:50:19;7.55;;;3.55;;
73954;SDS011;62306;52.516;13.290;2022-12-07T08:52:47;6.47;;;3.50;;
73954;SDS011;62306;52.516;13.290;2022-12-07T08:55:17;5.32;;;3.13;;
73954;SDS011;62306;52.516;13.290;2022-12-07T08:57:44;6.35;;;3.88;;
73954;SDS011;62306;52.516;13.290;2022-12-07T09:00:12;7.80;;;3.75;;
73954;SDS011;62306;52.516;13.290;2022-12-07T09:02:42;5.88;;;3.13;;
73954;SDS011;62306;52.516;13.290;2022-12-07T09:05:09;4.88;;;3.10;;
73954;SDS011;62306;52.516;13.290;2022-12-07T09:07:38;8.13;;;2.90;;
73954;SDS011;62306;52.516;13.290;2022-12-07T09:10:05;5.63;;;2.70;;
73954;SDS011;62306;52.516;13.290;2022-12-07T09:12:33;4.40;;;2.78;;
73954;SDS011;62306;52.516;13.290;2022-12-07T09:15:00;4.32;;;3.10;;
73954;SDS011;62306;52.516;13.290;2022-12-07T09:17:27;5.63;;;3.25;;
73954;SDS011;62306;52.516;13.290;2022-12-07T09:20:00;7.10;;;3.20;;
73954;SDS011;62306;52.516;13.290;2022-12-07T09:22:28;11.20;;;6.45;;
73954;SDS011;62306;52.516;13.290;2022-12-07T09:24:56;5.82;;;3.72;;
73954;SDS011;62306;52.516;13.290;2022-12-07T09:27:23;8.30;;;3.53;;
73954;SDS011;62306;52.516;13.290;2022-12-07T09:29:50;5.65;;;3.35;;
73954;SDS011;62306;52.516;13.290;2022-12-07T09:32:17;4.60;;;3.08;;
73954;SDS011;62306;52.516;13.290;2022-12-07T09:34:45;6.82;;;3.92;;
73954;SDS011;62306;52.516;13.290;2022-12-07T09:37:12;7.03;;;3.70;;
73954;SDS011;62306;52.516;13.290;2022-12-07T09:39:39;7.20;;;3.38;;
73954;SDS011;62306;52.516;13.290;2022-12-07T09:42:08;6.65;;;3.33;;
73954;SDS011;62306;52.516;13.290;2022-12-07T09:44:41;4.30;;;3.15;;
73954;SDS011;62306;52.516;13.290;2022-12-07T09:47:09;7.30;;;3.22;;
73954;SDS011;62306;52.516;13.290;2022-12-07T09:49:36;7.85;;;4.05;;
73954;SDS011;62306;52.516;13.290;2022-12-07T09:52:15;5.53;;;4.00;;
73954;SDS011;62306;52.516;13.290;2022-12-07T09:54:46;6.97;;;4.10;;
73954;SDS011;62306;52.516;13.290;2022-12-07T09:57:16;4.53;;;3.72;;
73954;SDS011;62306;52.516;13.290;2022-12-07T09:59:44;4.60;;;3.40;;
73954;SDS011;62306;52.516;13.290;2022-12-07T10:02:22;9.48;;;3.60;;
73954;SDS011;62306;52.516;13.290;2022-12-07T10:04:54;5.72;;;3.55;;
73954;SDS011;62306;52.516;13.290;2022-12-07T10:07:23;6.40;;;3.65;;
73954;SDS011;62306;52.516;13.290;2022-12-07T10:09:50;6.65;;;3.38;;
73954;SDS011;62306;52.516;13.290;2022-12-07T10:12:18;5.85;;;3.85;;
73954;SDS011;62306;52.516;13.290;2022-12-07T10:14:53;5.78;;;4.03;;
73954;SDS011;62306;52.516;13.290;2022-12-07T10:17:29;5.72;;;4.35;;
73954;SDS011;62306;52.516;13.290;2022-12-07T10:20:14;14.70;;;5.60;;
73954;SDS011;62306;52.516;13.290;2022-12-07T10:22:53;4.93;;;3.60;;
73954;SDS011;62306;52.516;13.290;2022-12-07T10:25:22;5.10;;;3.33;;
73954;SDS011;62306;52.516;13.290;2022-12-07T10:27:58;6.82;;;3.65;;
73954;SDS011;62306;52.516;13.290;2022-12-07T10:30:46;8.35;;;3.85;;
73954;SDS011;62306;52.516;13.290;2022-12-07T10:33:28;8.35;;;3.88;;
73954;SDS011;62306;52.516;13.290;2022-12-07T10:35:57;7.03;;;3.40;;
73954;SDS011;62306;52.516;13.290;2022-12-07T10:38:28;6.63;;;3.90;;
73954;SDS011;62306;52.516;13.290;2022-12-07T10:41:03;43.65;;;9.07;;
73954;SDS011;62306;52.516;13.290;2022-12-07T10:43:32;6.80;;;4.32;;
73954;SDS011;62306;52.516;13.290;2022-12-07T10:46:09;5.07;;;3.83;;
73954;SDS011;62306;52.516;13.290;2022-12-07T10:48:49;4.47;;;3.83;;
73954;SDS011;62306;52.516;13.290;2022-12-07T10:51:22;8.35;;;4.45;;
73954;SDS011;62306;52.516;13.290;2022-12-07T10:54:00;7.95;;;4.30;;
73954;SDS011;62306;52.516;13.290;2022-12-07T10:56:47;5.30;;;4.38;;
73954;SDS011;62306;52.516;13.290;2022-12-07T10:59:39;10.35;;;4.45;;
73954;SDS011;62306;52.516;13.290;2022-12-07T11:05:09;6.63;;;4.53;;
73954;SDS011;62306;52.516;13.290;2022-12-07T11:07:46;4.75;;;4.00;;
73954;SDS011;62306;52.516;13.290;2022-12-07T11:10:22;9.88;;;4.72;;
73954;SDS011;62306;52.516;13.290;2022-12-07T11:12:58;7.70;;;4.45;;
73954;SDS011;62306;52.516;13.290;2022-12-07T11:15:38;8.18;;;5.28;;
73954;SDS011;62306;52.516;13.290;2022-12-07T11:18:13;8.82;;;5.10;;
73954;SDS011;62306;52.516;13.290;2022-12-07T11:20:49;7.35;;;4.30;;
73954;SDS011;62306;52.516;13.290;2022-12-07T11:23:23;9.52;;;4.22;;
73954;SDS011;62306;52.516;13.290;2022-12-07T11:25:57;7.05;;;4.75;;
73954;SDS011;62306;52.516;13.290;2022-12-07T11:28:35;10.48;;;4.43;;
73954;SDS011;62306;52.516;13.290;2022-12-07T11:31:16;8.67;;;4.53;;
73954;SDS011;62306;52.516;13.290;2022-12-07T11:33:51;7.53;;;4.60;;
73954;SDS011;62306;52.516;13.290;2022-12-07T11:36:31;8.00;;;4.50;;
73954;SDS011;62306;52.516;13.290;2022-12-07T11:39:03;12.68;;;4.82;;
73954;SDS011;62306;52.516;13.290;2022-12-07T11:41:38;6.65;;;4.25;;
73954;SDS011;62306;52.516;13.290;2022-12-07T11:44:11;14.07;;;5.07;;
73954;SDS011;62306;52.516;13.290;2022-12-07T11:46:54;10.80;;;5.35;;
73954;SDS011;62306;52.516;13.290;2022-12-07T11:49:27;9.80;;;5.40;;
73954;SDS011;62306;52.516;13.290;2022-12-07T11:52:08;9.82;;;5.53;;
73954;SDS011;62306;52.516;13.290;2022-12-07T11:54:43;8.95;;;4.90;;
73954;SDS011;62306;52.516;13.290;2022-12-07T11:57:15;13.45;;;4.35;;
73954;SDS011;62306;52.516;13.290;2022-12-07T11:59:47;9.23;;;4.25;;
73954;SDS011;62306;52.516;13.290;2022-12-07T12:02:20;6.32;;;4.10;;
73954;SDS011;62306;52.516;13.290;2022-12-07T12:04:51;10.82;;;4.40;;
73954;SDS011;62306;52.516;13.290;2022-12-07T12:07:23;7.13;;;3.92;;
73954;SDS011;62306;52.516;13.290;2022-12-07T12:09:53;6.05;;;3.45;;
73954;SDS011;62306;52.516;13.290;2022-12-07T15:49:58;12.95;;;2.92;;
73954;SDS011;62306;52.516;13.290;2022-12-07T15:52:25;10.15;;;2.85;;
73954;SDS011;62306;52.516;13.290;2022-12-07T15:54:52;8.43;;;2.80;;
73954;SDS011;62306;52.516;13.290;2022-12-07T15:57:19;7.28;;;2.60;;
73954;SDS011;62306;52.516;13.290;2022-12-07T15:59:46;10.98;;;2.55;;
73954;SDS011;62306;52.516;13.290;2022-12-07T16:02:13;12.35;;;3.00;;
73954;SDS011;62306;52.516;13.290;2022-12-07T16:04:40;12.57;;;3.10;;
73954;SDS011;62306;52.516;13.290;2022-12-07T16:07:09;8.70;;;3.25;;
73954;SDS011;62306;52.516;13.290;2022-12-07T16:09:36;8.35;;;3.13;;
73954;SDS011;62306;52.516;13.290;2022-12-07T16:12:03;14.85;;;3.00;;
73954;SDS011;62306;52.516;13.290;2022-12-07T16:14:31;12.70;;;3.17;;
73954;SDS011;62306;52.516;13.290;2022-12-07T16:16:58;17.77;;;4.10;;
73954;SDS011;62306;52.516;13.290;2022-12-07T16:19:25;11.25;;;3.05;;
73954;SDS011;62306;52.516;13.290;2022-12-07T16:21:52;13.13;;;3.10;;
73954;SDS011;62306;52.516;13.290;2022-12-07T16:24:20;7.60;;;3.08;;
73954;SDS011;62306;52.516;13.290;2022-12-07T16:26:47;8.82;;;3.13;;
73954;SDS011;62306;52.516;13.290;2022-12-07T16:29:15;7.78;;;3.15;;
73954;SDS011;62306;52.516;13.290;2022-12-07T16:31:42;8.52;;;3.10;;
73954;SDS011;62306;52.516;13.290;2022-12-07T16:34:09;8.05;;;2.97;;
73954;SDS011;62306;52.516;13.290;2022-12-07T16:36:36;6.28;;;2.65;;
73954;SDS011;62306;52.516;13.290;2022-12-07T16:39:04;8.80;;;2.58;;
73954;SDS011;62306;52.516;13.290;2022-12-07T16:41:33;5.85;;;2.83;;
73954;SDS011;62306;52.516;13.290;2022-12-07T16:44:00;8.93;;;2.92;;
73954;SDS011;62306;52.516;13.290;2022-12-07T16:46:29;10.05;;;3.28;;
73954;SDS011;62306;52.516;13.290;2022-12-07T16:48:57;10.27;;;3.13;;
73954;SDS011;62306;52.516;13.290;2022-12-07T16:51:24;9.18;;;2.97;;
73954;SDS011;62306;52.516;13.290;2022-12-07T16:53:52;10.98;;;3.20;;
73954;SDS011;62306;52.516;13.290;2022-12-07T16:56:19;7.63;;;3.45;;
73954;SDS011;62306;52.516;13.290;2022-12-07T16:58:48;12.40;;;3.60;;
73954;SDS011;62306;52.516;13.290;2022-12-07T17:01:15;8.77;;;3.00;;
73954;SDS011;62306;52.516;13.290;2022-12-07T17:03:43;15.32;;;3.67;;
73954;SDS011;62306;52.516;13.290;2022-12-07T17:06:13;7.25;;;2.42;;
73954;SDS011;62306;52.516;13.290;2022-12-07T17:08:40;12.82;;;3.13;;
73954;SDS011;62306;52.516;13.290;2022-12-07T17:11:11;9.35;;;2.88;;
73954;SDS011;62306;52.516;13.290;2022-12-07T17:13:40;11.70;;;2.73;;
73954;SDS011;62306;52.516;13.290;2022-12-07T17:16:26;10.77;;;2.80;;
73954;SDS011;62306;52.516;13.290;2022-12-07T17:18:53;13.82;;;3.25;;
73954;SDS011;62306;52.516;13.290;2022-12-07T17:21:20;5.93;;;2.90;;
73954;SDS011;62306;52.516;13.290;2022-12-07T17:23:47;11.77;;;2.63;;
73954;SDS011;62306;52.516;13.290;2022-12-07T17:26:15;11.38;;;3.95;;
73954;SDS011;62306;52.516;13.290;2022-12-07T17:28:44;9.48;;;3.10;;
73954;SDS011;62306;52.516;13.290;2022-12-07T17:31:12;8.50;;;2.85;;
73954;SDS011;62306;52.516;13.290;2022-12-07T17:33:41;13.82;;;2.75;;
73954;SDS011;62306;52.516;13.290;2022-12-07T17:36:11;10.90;;;3.83;;
73954;SDS011;62306;52.516;13.290;2022-12-07T17:38:39;6.95;;;3.08;;
73954;SDS011;62306;52.516;13.290;2022-12-07T17:41:10;19.25;;;8.93;;
73954;SDS011;62306;52.516;13.290;2022-12-07T17:43:59;16.10;;;6.18;;
73954;SDS011;62306;52.516;13.290;2022-12-07T17:46:26;12.95;;;4.97;;
73954;SDS011;62306;52.516;13.290;2022-12-07T17:48:54;10.73;;;3.13;;
73954;SDS011;62306;52.516;13.290;2022-12-07T17:51:21;7.18;;;3.00;;
73954;SDS011;62306;52.516;13.290;2022-12-07T17:54:06;12.05;;;3.50;;
73954;SDS011;62306;52.516;13.290;2022-12-07T17:56:33;10.82;;;3.35;;
73954;SDS011;62306;52.516;13.290;2022-12-07T17:59:00;8.85;;;3.70;;
73954;SDS011;62306;52.516;13.290;2022-12-07T18:01:27;11.85;;;3.72;;
73954;SDS011;62306;52.516;13.290;2022-12-07T18:03:55;11.43;;;3.55;;
73954;SDS011;62306;52.516;13.290;2022-12-07T18:06:22;7.05;;;2.83;;
73954;SDS011;62306;52.516;13.290;2022-12-07T18:08:49;15.85;;;4.35;;
73954;SDS011;62306;52.516;13.290;2022-12-07T18:11:16;9.93;;;4.00;;
73954;SDS011;62306;52.516;13.290;2022-12-07T18:13:43;9.60;;;3.70;;
73954;SDS011;62306;52.516;13.290;2022-12-07T18:16:12;11.02;;;3.80;;
73954;SDS011;62306;52.516;13.290;2022-12-07T18:18:41;6.80;;;4.50;;
73954;SDS011;62306;52.516;13.290;2022-12-07T18:21:10;9.48;;;3.63;;
73954;SDS011;62306;52.516;13.290;2022-12-07T18:23:40;10.45;;;4.13;;
73954;SDS011;62306;52.516;13.290;2022-12-07T18:26:08;8.95;;;3.78;;
73954;SDS011;62306;52.516;13.290;2022-12-07T18:28:37;14.65;;;4.00;;
73954;SDS011;62306;52.516;13.290;2022-12-07T18:31:05;11.10;;;4.03;;
73954;SDS011;62306;52.516;13.290;2022-12-07T18:33:32;12.40;;;5.32;;
73954;SDS011;62306;52.516;13.290;2022-12-07T18:35:59;13.93;;;4.22;;
73954;SDS011;62306;52.516;13.290;2022-12-07T18:38:28;170.75;;;81.15;;
73954;SDS011;62306;52.516;13.290;2022-12-07T18:40:55;78.53;;;39.92;;
73954;SDS011;62306;52.516;13.290;2022-12-07T18:43:22;22.00;;;7.15;;
73954;SDS011;62306;52.516;13.290;2022-12-07T18:45:50;13.80;;;4.15;;
73954;SDS011;62306;52.516;13.290;2022-12-07T18:48:18;7.95;;;3.55;;
73954;SDS011;62306;52.516;13.290;2022-12-07T18:50:46;8.18;;;3.60;;
73954;SDS011;62306;52.516;13.290;2022-12-07T18:53:23;11.88;;;3.63;;
73954;SDS011;62306;52.516;13.290;2022-12-07T18:55:52;6.90;;;3.75;;
73954;SDS011;62306;52.516;13.290;2022-12-07T18:58:26;9.75;;;4.07;;
73954;SDS011;62306;52.516;13.290;2022-12-07T19:00:53;8.25;;;4.13;;
73954;SDS011;62306;52.516;13.290;2022-12-07T19:03:21;11.30;;;4.50;;
73954;SDS011;62306;52.516;13.290;2022-12-07T19:05:48;11.95;;;4.80;;
73954;SDS011;62306;52.516;13.290;2022-12-07T19:08:15;7.55;;;3.58;;
73954;SDS011;62306;52.516;13.290;2022-12-07T19:10:42;13.05;;;4.15;;
73954;SDS011;62306;52.516;13.290;2022-12-07T19:13:10;11.98;;;4.15;;
73954;SDS011;62306;52.516;13.290;2022-12-07T19:15:38;27.85;;;10.85;;
73954;SDS011;62306;52.516;13.290;2022-12-07T19:18:06;19.67;;;8.63;;
73954;SDS011;62306;52.516;13.290;2022-12-07T19:20:32;9.73;;;4.65;;
73954;SDS011;62306;52.516;13.290;2022-12-07T19:22:59;10.15;;;4.07;;
73954;SDS011;62306;52.516;13.290;2022-12-07T19:25:26;11.95;;;4.00;;
73954;SDS011;62306;52.516;13.290;2022-12-07T19:27:53;11.25;;;4.38;;
73954;SDS011;62306;52.516;13.290;2022-12-07T19:30:21;11.68;;;4.32;;
73954;SDS011;62306;52.516;13.290;2022-12-07T19:32:48;10.07;;;4.22;;
73954;SDS011;62306;52.516;13.290;2022-12-07T19:35:15;12.93;;;4.30;;
73954;SDS011;62306;52.516;13.290;2022-12-07T19:37:42;9.00;;;4.35;;
73954;SDS011;62306;52.516;13.290;2022-12-07T19:40:09;17.95;;;4.40;;
73954;SDS011;62306;52.516;13.290;2022-12-07T19:42:37;13.13;;;4.95;;
73954;SDS011;62306;52.516;13.290;2022-12-07T19:45:04;9.63;;;4.85;;
73954;SDS011;62306;52.516;13.290;2022-12-07T19:47:33;9.45;;;4.28;;
73954;SDS011;62306;52.516;13.290;2022-12-07T19:49:59;7.38;;;4.88;;
73954;SDS011;62306;52.516;13.290;2022-12-07T19:52:26;12.48;;;4.78;;
73954;SDS011;62306;52.516;13.290;2022-12-07T19:54:54;12.52;;;4.57;;
73954;SDS011;62306;52.516;13.290;2022-12-07T19:57:20;15.27;;;4.30;;
73954;SDS011;62306;52.516;13.290;2022-12-07T19:59:47;14.40;;;4.82;;
73954;SDS011;62306;52.516;13.290;2022-12-07T20:02:14;14.75;;;5.47;;
73954;SDS011;62306;52.516;13.290;2022-12-07T20:04:43;7.60;;;4.38;;
73954;SDS011;62306;52.516;13.290;2022-12-07T20:07:10;13.02;;;4.60;;
73954;SDS011;62306;52.516;13.290;2022-12-07T20:09:39;8.65;;;4.65;;
73954;SDS011;62306;52.516;13.290;2022-12-07T20:12:07;14.05;;;5.25;;
73954;SDS011;62306;52.516;13.290;2022-12-07T20:14:52;16.63;;;5.10;;
73954;SDS011;62306;52.516;13.290;2022-12-07T20:17:19;10.68;;;5.32;;
73954;SDS011;62306;52.516;13.290;2022-12-07T20:19:55;15.75;;;5.25;;
73954;SDS011;62306;52.516;13.290;2022-12-07T20:22:24;18.85;;;7.57;;
73954;SDS011;62306;52.516;13.290;2022-12-07T20:24:51;13.23;;;5.10;;
73954;SDS011;62306;52.516;13.290;2022-12-07T20:27:20;14.68;;;5.53;;
73954;SDS011;62306;52.516;13.290;2022-12-07T20:29:50;21.83;;;7.55;;
73954;SDS011;62306;52.516;13.290;2022-12-07T20:32:17;17.63;;;6.93;;
73954;SDS011;62306;52.516;13.290;2022-12-07T20:34:44;15.52;;;5.95;;
73954;SDS011;62306;52.516;13.290;2022-12-07T20:37:14;13.13;;;5.45;;
73954;SDS011;62306;52.516;13.290;2022-12-07T20:39:41;13.82;;;7.32;;
73954;SDS011;62306;52.516;13.290;2022-12-07T20:42:09;17.70;;;7.25;;
73954;SDS011;62306;52.516;13.290;2022-12-07T20:44:54;13.57;;;5.85;;
73954;SDS011;62306;52.516;13.290;2022-12-07T20:47:22;9.77;;;5.55;;
73954;SDS011;62306;52.516;13.290;2022-12-07T20:49:50;19.48;;;6.15;;
73954;SDS011;62306;52.516;13.290;2022-12-07T20:52:21;11.45;;;6.10;;
73954;SDS011;62306;52.516;13.290;2022-12-07T20:54:47;15.77;;;6.18;;
73954;SDS011;62306;52.516;13.290;2022-12-07T20:57:18;11.10;;;5.75;;
73954;SDS011;62306;52.516;13.290;2022-12-07T20:59:45;10.45;;;5.05;;
73954;SDS011;62306;52.516;13.290;2022-12-07T21:02:15;16.90;;;6.13;;
73954;SDS011;62306;52.516;13.290;2022-12-07T21:04:43;20.65;;;7.18;;
73954;SDS011;62306;52.516;13.290;2022-12-07T21:07:10;19.83;;;7.22;;
73954;SDS011;62306;52.516;13.290;2022-12-07T21:09:38;16.48;;;5.38;;
73954;SDS011;62306;52.516;13.290;2022-12-07T21:12:07;12.73;;;5.95;;
73954;SDS011;62306;52.516;13.290;2022-12-07T21:14:37;12.02;;;5.32;;
73954;SDS011;62306;52.516;13.290;2022-12-07T21:17:04;16.75;;;7.18;;